In Rescue
 
Open Full Screen Window  High Contrast Mode
Wind Gusting 00 knots
03
September 19, 2019 5:45 PM EDT
Weather Information
Wind Direction
  140 °
Wind Speed
  03 kt (3 mph)
Wind Gust
  00 kt (0 mph)
Altimeter
30.08 in
Visibility
10 SM
Temperature
27° C
81° F
Dewpoint
17° C
63° F
Humidity
54%
Sky Condition
Scattered @ 7,000 ft
Scattered @ 5,000 ft
VFR

METAR KAXV 192145Z AUTO 14003KT 10SM SCT050 SCT070 27/17 A3008 RMK AO2

FAA Disclaimer: The data displayed is for advisory purposes only and is not to be used for flight planning or operations.